PDT,Max TemperatureF,Mean TemperatureF,Min TemperatureF,Max Dew PointF,MeanDew PointF,Min DewpointF,Max Humidity, Mean Humidity, Min Humidity, Max Sea Level PressureIn, Mean Sea Level PressureIn, Min Sea Level PressureIn, Max VisibilityMiles, Mean VisibilityMiles, Min VisibilityMiles, Max Wind SpeedMPH, Mean Wind SpeedMPH, Max Gust SpeedMPH,PrecipitationIn, CloudCover, Events, WindDirDegrees
2012-10-1,83,63,43,46,40,36,76,48,20,30.27,30.14,29.98,10,10,9,12,4,28,0.00,0,,271
2012-10-2,81,62,42,47,32,16,72,43,13,30.25,30.03,29.91,10,10,10,23,7,30,0.00,0,,331
2012-10-3,65,48,30,29,25,19,72,47,22,30.45,30.37,30.29,10,10,10,13,7,23,0.00,0,,299
2012-10-4,66,49,32,29,25,18,75,46,16,30.35,30.32,30.29,10,10,10,14,7,26,0.00,0,,286
2012-10-5,66,47,28,27,23,16,78,47,15,30.40,30.35,30.31,10,10,10,17,7,30,0.00,0,,274
2012-10-6,70,49,27,31,23,19,75,45,15,30.38,30.30,30.22,10,10,10,28,5,29,0.00,0,,277
2012-10-7,72,50,28,35,26,21,78,47,15,30.22,30.11,29.99,10,10,10,9,6,16,0.00,0,,261
2012-10-8,73,51,29,36,29,24,78,49,19,30.01,29.96,29.91,10,10,10,38,5,117,0.00,0,Rain,291
2012-10-9,76,58,39,40,36,32,79,51,23,30.09,30.02,29.98,10,10,10,12,5,,0.00,0,,269
2012-10-10,78,56,34,40,36,30,89,57,25,29.99,29.91,29.82,10,10,8,10,3,24,0.00,0,,239
2012-10-11,75,56,36,39,36,31,82,54,25,29.99,29.89,29.79,10,10,9,10,5,64,0.00,0,,260
2012-10-12,64,49,34,50,39,29,83,61,39,29.96,29.85,29.79,10,10,7,9,1,26,0.02,5,Rain,304
2012-10-13,70,55,40,49,46,38,96,70,44,30.15,30.10,29.99,10,8,3,18,4,24,T,4,,254
2012-10-14,70,60,49,51,48,44,86,63,40,30.12,29.99,29.87,10,10,10,25,8,32,0.02,4,Rain,225
2012-10-15,72,59,45,57,51,44,93,66,38,29.93,29.79,29.57,10,10,6,21,5,29,0.21,4,Rain,199
2012-10-16,63,50,36,52,36,30,96,63,30,30.19,29.88,29.52,10,10,2,36,14,46,0.00,1,,272
2012-10-17,61,46,31,37,32,27,82,56,29,30.30,30.26,30.22,10,10,10,9,3,16,0.00,1,,249
2012-10-18,62,48,33,39,34,29,89,63,36,30.27,30.11,29.87,10,10,10,7,3,17,T,1,,254
2012-10-19,72,56,39,46,41,36,92,65,37,29.86,29.74,29.66,10,10,7,24,8,37,T,5,,263
2012-10-20,58,44,29,37,27,19,78,51,23,29.88,29.82,29.70,10,10,10,29,8,31,0.00,3,,290
2012-10-21,54,39,23,32,27,20,88,63,38,29.93,29.87,29.82,10,10,10,13,4,25,0.00,1,,269
2012-10-22,45,40,34,37,34,31,96,79,62,29.80,29.66,29.58,10,9,3,15,3,28,0.29,8,Rain,284
2012-10-23,52,40,28,37,31,26,96,72,48,29.94,29.81,29.69,10,6,0,14,3,18,0.00,4,Fog,249
2012-10-24,47,41,34,38,36,31,92,79,65,30.17,30.02,29.92,10,9,4,10,2,13,0.15,8,Rain,280
2012-10-25,54,43,31,38,35,28,92,69,46,30.43,30.36,30.19,10,9,6,10,3,15,0.00,2,,254
2012-10-26,46,41,36,39,36,33,85,81,76,30.40,30.22,30.11,10,9,4,12,2,17,0.03,7,Rain,318
2012-10-27,46,41,36,43,40,35,85,81,76,30.11,30.00,29.88,10,4,2,12,2,,0.03,7,Rain,246
2012-10-28,59,50,40,50,43,37,96,84,72,29.94,29.88,29.84,10,4,0,9,2,18,0.02,7,Fog-Rain,265
2012-10-29,70,59,47,50,46,40,93,64,35,30.01,29.89,29.81,10,7,2,16,3,20,0.01,5,,288
2012-10-30,61,56,50,54,48,44,89,77,64,30.00,29.90,29.82,10,10,9,12,2,21,T,6,Rain,239
2012-10-31,59,55,50,52,48,41,93,85,77,29.83,29.74,29.68,10,8,6,10,2,12,T,2,Rain,256